createdAt,value
2022-11-29T00:01:26.527Z,96362.81
2022-11-29T00:03:55.296Z,96351.78
2022-11-29T00:06:27.650Z,96364.59
2022-11-29T00:08:56.787Z,96354.06
2022-11-29T00:11:40.501Z,96351.28
2022-11-29T00:14:10.239Z,96361.97
2022-11-29T00:16:40.882Z,96366.09
2022-11-29T00:19:09.881Z,96353.28
2022-11-29T00:21:39.400Z,96343.91
2022-11-29T00:24:08.033Z,96348.19
2022-11-29T00:26:37.018Z,96350.66
2022-11-29T00:29:05.324Z,96338.84
2022-11-29T00:31:33.861Z,96337.19
2022-11-29T00:34:04.428Z,96325.25
2022-11-29T00:36:32.268Z,96344.91
2022-11-29T00:39:02.021Z,96345.72
2022-11-29T00:41:29.925Z,96347.38
2022-11-29T00:43:58.171Z,96357.56
2022-11-29T00:46:26.247Z,96336.22
2022-11-29T00:48:54.189Z,96337.19
2022-11-29T00:51:22.023Z,96330.63
2022-11-29T00:53:50.460Z,96331.97
2022-11-29T00:56:19.756Z,96330.31
2022-11-29T00:58:48.689Z,96319.19
2022-11-29T01:01:17.217Z,96333.59
2022-11-29T01:03:45.078Z,96343.75
2022-11-29T01:06:15.372Z,96329.34
2022-11-29T01:08:45.613Z,96322.94
2022-11-29T01:11:16.599Z,96335.25
2022-11-29T01:13:46.794Z,96341.31
2022-11-29T01:16:15.609Z,96319.34
2022-11-29T01:18:44.109Z,96318.53
2022-11-29T01:21:14.996Z,96314.09
2022-11-29T01:23:45.065Z,96313.28
2022-11-29T01:26:15.505Z,96314.25
2022-11-29T01:28:46.422Z,96288.38
2022-11-29T01:31:17.284Z,96274.22
2022-11-29T01:33:45.564Z,96281.00
2022-11-29T01:36:14.493Z,96294.59
2022-11-29T01:38:43.562Z,96294.59
2022-11-29T01:41:16.412Z,96292.63
2022-11-29T01:44:04.944Z,96292.13
2022-11-29T01:46:34.308Z,96284.44
2022-11-29T01:49:07.821Z,96281.16
2022-11-29T01:51:37.511Z,96269.03
2022-11-29T01:54:08.202Z,96271.66
2022-11-29T01:56:36.589Z,96270.03
2022-11-29T01:59:09.042Z,96250.34
2022-11-29T02:01:37.487Z,96248.72
2022-11-29T02:04:07.018Z,96249.69
2022-11-29T02:06:35.722Z,96246.09
2022-11-29T02:09:04.311Z,96243.47
2022-11-29T02:12:00.006Z,96247.09
2022-11-29T02:14:48.753Z,96236.72
2022-11-29T02:17:26.130Z,96252.97
2022-11-29T02:20:23.889Z,96245.13
2022-11-29T02:23:03.038Z,96250.34
2022-11-29T02:25:58.491Z,96225.44
2022-11-29T02:29:21.090Z,96226.41
2022-11-29T02:32:25.763Z,96217.06
2022-11-29T02:34:59.839Z,96207.09
2022-11-29T02:38:01.147Z,96214.63
2022-11-29T02:40:55.519Z,96218.22
2022-11-29T02:43:43.647Z,96225.75
2022-11-29T02:46:26.698Z,96218.22
2022-11-29T02:49:03.632Z,96225.59
2022-11-29T02:51:41.149Z,96231.66
2022-11-29T02:54:17.442Z,96208.72
2022-11-29T02:56:52.269Z,96229.03
2022-11-29T02:59:31.709Z,96234.28
2022-11-29T03:02:08.141Z,96223.13
2022-11-29T03:04:46.826Z,96229.19
2022-11-29T03:07:24.923Z,96230.00
2022-11-29T03:10:01.670Z,96232.63
2022-11-29T03:12:38.894Z,96232.63
2022-11-29T03:15:20.587Z,96231.81
2022-11-29T03:18:02.327Z,96242.78
2022-11-29T03:20:39.804Z,96245.41
2022-11-29T03:23:20.222Z,96239.34
2022-11-29T03:25:53.479Z,96232.47
2022-11-29T03:28:26.059Z,96247.09
2022-11-29T03:31:02.416Z,96242.78
2022-11-29T03:33:38.996Z,96232.78
2022-11-29T03:36:17.170Z,96231.66
2022-11-29T03:38:47.264Z,96230.84
2022-11-29T03:41:21.769Z,96231.66
2022-11-29T03:43:57.570Z,96235.25
2022-11-29T03:46:34.198Z,96224.44
2022-11-29T03:49:08.124Z,96236.06
2022-11-29T03:51:50.426Z,96233.63
2022-11-29T03:54:23.399Z,96220.84
2022-11-29T03:56:52.157Z,96247.09
2022-11-29T03:59:36.093Z,96244.47
2022-11-29T04:02:41.203Z,96239.22
2022-11-29T04:05:32.480Z,96254.78
2022-11-29T04:08:44.147Z,96244.47
2022-11-29T04:11:54.987Z,96247.09
2022-11-29T04:14:34.579Z,96244.59
2022-11-29T04:17:35.019Z,96239.34
2022-11-29T04:20:48.503Z,96240.84
2022-11-29T04:23:47.749Z,96240.16
2022-11-29T04:26:38.285Z,96228.06
2022-11-29T04:29:34.264Z,96221.50
2022-11-29T04:32:22.511Z,96229.34
2022-11-29T04:35:13.484Z,96230.00
2022-11-29T04:38:07.064Z,96236.91
2022-11-29T04:40:53.369Z,96219.84
2022-11-29T04:43:42.254Z,96236.91
2022-11-29T04:46:37.210Z,96223.13
2022-11-29T04:49:24.947Z,96209.38
2022-11-29T04:52:22.105Z,96214.63
2022-11-29T04:54:57.849Z,96218.22
2022-11-29T04:57:33.906Z,96218.22
2022-11-29T05:00:09.880Z,96212.97
2022-11-29T05:02:45.068Z,96212.16
2022-11-29T05:05:25.734Z,96212.16
2022-11-29T05:08:08.483Z,96219.03
2022-11-29T05:10:42.954Z,96218.22
2022-11-29T05:13:16.433Z,96213.97
2022-11-29T05:16:09.704Z,96224.13
2022-11-29T05:18:58.515Z,96219.84
2022-11-29T05:21:39.462Z,96225.91
2022-11-29T05:24:18.872Z,96223.13
2022-11-29T05:26:55.838Z,96235.91
2022-11-29T05:29:35.155Z,96234.28
2022-11-29T05:32:22.501Z,96229.19
2022-11-29T05:35:03.136Z,96225.75
2022-11-29T05:37:44.119Z,96228.53
2022-11-29T05:40:41.795Z,96225.09
2022-11-29T05:43:42.116Z,96217.25
2022-11-29T05:46:18.442Z,96225.09
2022-11-29T05:48:57.802Z,96210.03
2022-11-29T05:51:34.994Z,96202.81
2022-11-29T05:54:14.460Z,96201.69
2022-11-29T05:56:53.948Z,96203.66
2022-11-29T05:59:24.428Z,96226.09
2022-11-29T06:01:59.071Z,96232.31
2022-11-29T06:04:40.081Z,96255.88
2022-11-29T06:07:15.300Z,96256.41
2022-11-29T06:09:50.246Z,96248.03
2022-11-29T06:12:21.873Z,96263.47
2022-11-29T06:15:07.373Z,96271.97
2022-11-29T06:18:03.280Z,96271.00
2022-11-29T06:21:03.944Z,96268.38
2022-11-29T06:23:58.970Z,96265.75
2022-11-29T06:26:41.128Z,96271.00
2022-11-29T06:29:25.257Z,96253.78
2022-11-29T06:31:59.736Z,96250.34
2022-11-29T06:34:34.332Z,96240.16
2022-11-29T06:37:15.645Z,96244.59
2022-11-29T06:39:44.086Z,96249.53
2022-11-29T06:42:12.045Z,96279.34
2022-11-29T06:44:40.427Z,96272.63
2022-11-29T06:47:15.940Z,96275.25
2022-11-29T06:49:48.926Z,96269.03
2022-11-29T06:52:27.129Z,96299.84
2022-11-29T06:55:11.613Z,96294.59
2022-11-29T06:57:51.454Z,96293.94
2022-11-29T07:00:22.192Z,96292.94
2022-11-29T07:03:13.478Z,96275.91
2022-11-29T07:05:41.906Z,96287.06
2022-11-29T07:08:16.836Z,96304.91
2022-11-29T07:10:45.700Z,96298.03
2022-11-29T07:13:14.770Z,96283.63
2022-11-29T07:15:54.329Z,96291.31
2022-11-29T07:18:32.417Z,96295.41
2022-11-29T07:21:11.124Z,96283.63
2022-11-29T07:23:50.955Z,96313.59
2022-11-29T07:26:30.337Z,96292.94
2022-11-29T07:29:17.188Z,96303.94
2022-11-29T07:31:55.565Z,96318.53
2022-11-29T07:34:31.046Z,96305.72
2022-11-29T07:37:08.071Z,96306.72
2022-11-29T07:39:46.652Z,96318.53
2022-11-29T07:42:21.548Z,96339.00
2022-11-29T07:45:01.352Z,96321.13
2022-11-29T07:47:35.306Z,96339.16
2022-11-29T07:50:03.735Z,96331.28
2022-11-29T07:52:31.752Z,96339.97
2022-11-29T07:55:00.963Z,96321.47
2022-11-29T07:57:28.712Z,96350.97
2022-11-29T07:59:56.602Z,96349.00
2022-11-29T08:02:29.196Z,96373.28
2022-11-29T08:04:57.091Z,96363.78
2022-11-29T08:07:26.776Z,96349.50
2022-11-29T08:09:54.962Z,96352.59
2022-11-29T08:12:24.133Z,96355.22
2022-11-29T08:14:52.036Z,96359.50
2022-11-29T08:17:19.840Z,96388.69
2022-11-29T08:19:47.738Z,96377.38
2022-11-29T08:22:15.650Z,96398.88
2022-11-29T08:24:44.176Z,96388.38
2022-11-29T08:27:12.162Z,96380.66
2022-11-29T08:29:41.649Z,96382.47
2022-11-29T08:32:10.057Z,96391.66
2022-11-29T08:34:38.056Z,96402.63
2022-11-29T08:37:05.892Z,96394.09
2022-11-29T08:39:33.713Z,96403.63
2022-11-29T08:42:01.800Z,96409.69
2022-11-29T08:44:30.930Z,96425.91
2022-11-29T08:47:17.297Z,96445.44
2022-11-29T08:49:59.294Z,96442.81
2022-11-29T08:52:44.550Z,96453.31
2022-11-29T08:55:13.925Z,96467.56
2022-11-29T08:57:43.226Z,96485.50
2022-11-29T09:00:12.588Z,96494.84
2022-11-29T09:02:42.360Z,96488.78
2022-11-29T09:05:11.865Z,96492.22
2022-11-29T09:07:40.238Z,96505.16
2022-11-29T09:10:09.401Z,96498.94
2022-11-29T09:12:38.106Z,96502.53
2022-11-29T09:15:06.915Z,96494.69
2022-11-29T09:17:35.017Z,96496.28
2022-11-29T09:20:05.367Z,96519.59
2022-11-29T09:22:33.231Z,96512.72
2022-11-29T09:25:01.120Z,96511.75
2022-11-29T09:27:29.051Z,96533.06
2022-11-29T09:29:58.126Z,96546.84
2022-11-29T09:32:25.950Z,96543.25
2022-11-29T09:34:53.844Z,96559.50
2022-11-29T09:37:22.988Z,96567.88
2022-11-29T09:39:50.861Z,96598.09
2022-11-29T09:42:39.528Z,96605.63
2022-11-29T09:45:10.575Z,96618.75
2022-11-29T09:48:04.684Z,96624.34
2022-11-29T09:50:35.545Z,96626.97
2022-11-29T09:53:20.807Z,96636.34
2022-11-29T09:56:01.108Z,96617.56
2022-11-29T09:58:34.018Z,96650.63
2022-11-29T10:01:06.481Z,96647.34
2022-11-29T10:03:39.346Z,96665.25
2022-11-29T10:06:14.973Z,96660.97
2022-11-29T10:08:49.717Z,96663.75
2022-11-29T10:11:23.965Z,96681.50
2022-11-29T10:13:54.880Z,96674.75
2022-11-29T10:16:28.654Z,96685.75
2022-11-29T10:19:04.874Z,96682.78
2022-11-29T10:21:36.529Z,96680.31
2022-11-29T10:24:11.448Z,96699.41
2022-11-29T10:26:39.311Z,96731.13
2022-11-29T10:29:07.082Z,96727.53
2022-11-29T10:31:43.249Z,96754.94
2022-11-29T10:34:15.186Z,96756.75
2022-11-29T10:36:45.760Z,96770.41
2022-11-29T10:39:20.294Z,96778.94
2022-11-29T10:41:52.920Z,96783.22
2022-11-29T10:44:21.088Z,96786.50
2022-11-29T10:46:49.981Z,96807.88
2022-11-29T10:49:20.631Z,96800.13
2022-11-29T10:51:48.586Z,96824.16
2022-11-29T10:54:31.086Z,96810.34
2022-11-29T10:57:01.557Z,96866.75
2022-11-29T10:59:33.065Z,96874.47
2022-11-29T11:02:04.123Z,96869.22
2022-11-29T11:04:36.039Z,96872.81
2022-11-29T11:07:05.931Z,96911.13
2022-11-29T11:09:38.003Z,96928.25
2022-11-29T11:12:08.623Z,96943.56
2022-11-29T11:14:39.274Z,96933.38
2022-11-29T11:17:17.280Z,96940.94
2022-11-29T11:19:55.877Z,96954.75
2022-11-29T11:22:25.944Z,96946.19
2022-11-29T11:25:00.824Z,96945.38
2022-11-29T11:27:31.306Z,96973.50
2022-11-29T11:29:59.695Z,96950.63
2022-11-29T11:32:27.766Z,96952.13
2022-11-29T11:34:57.904Z,96972.69
2022-11-29T11:37:28.309Z,96968.25
2022-11-29T11:40:01.376Z,96954.75
2022-11-29T11:42:38.834Z,96942.91
2022-11-29T11:45:24.343Z,96936.00
2022-11-29T11:47:54.786Z,96941.94
2022-11-29T11:50:32.794Z,96922.47
2022-11-29T11:53:05.246Z,96874.47
2022-11-29T11:55:40.505Z,96880.38
2022-11-29T11:58:22.875Z,96875.28
2022-11-29T12:01:07.599Z,96872.81
2022-11-29T12:03:49.240Z,96885.66
2022-11-29T12:06:41.620Z,96882.34
2022-11-29T12:09:19.399Z,96851.28
2022-11-29T12:12:00.186Z,96811.28
2022-11-29T12:14:38.372Z,96836.97
2022-11-29T12:17:19.757Z,96848.16
2022-11-29T12:20:01.039Z,96848.81
2022-11-29T12:22:43.845Z,96869.53
2022-11-29T12:25:20.644Z,96834.34
2022-11-29T12:27:51.403Z,96828.72
2022-11-29T12:30:19.676Z,96807.03
2022-11-29T12:33:08.225Z,96819.19
2022-11-29T12:35:51.161Z,96789.28
2022-11-29T12:38:37.855Z,96783.38
2022-11-29T12:41:23.522Z,96746.56
2022-11-29T12:44:06.341Z,96748.22
2022-11-29T12:46:35.573Z,96732.94
2022-11-29T12:49:14.434Z,96731.28
2022-11-29T12:51:53.981Z,96706.31
2022-11-29T12:54:40.952Z,96708.13
2022-11-29T12:57:16.597Z,96682.47
2022-11-29T13:00:04.653Z,96699.56
2022-11-29T13:02:43.465Z,96699.56
2022-11-29T13:05:21.394Z,96660.47
2022-11-29T13:08:08.467Z,96640.75
2022-11-29T13:10:51.064Z,96650.94
2022-11-29T13:13:25.765Z,96645.03
2022-11-29T13:16:04.406Z,96649.31
2022-11-29T13:18:40.152Z,96647.66
2022-11-29T13:21:14.471Z,96619.38
2022-11-29T13:26:41.028Z,96600.16
2022-11-29T13:29:14.871Z,96578.53
2022-11-29T13:31:45.252Z,96569.16
2022-11-29T13:34:20.359Z,96547.16
2022-11-29T13:37:01.613Z,96543.56
2022-11-29T13:39:39.918Z,96550.44
2022-11-29T13:42:14.267Z,96539.47
2022-11-29T13:44:47.914Z,96545.53
2022-11-29T13:47:19.301Z,96531.25
2022-11-29T13:49:52.741Z,96528.13
2022-11-29T13:52:36.244Z,96528.94
2022-11-29T13:55:28.876Z,96556.53
2022-11-29T13:58:20.428Z,96565.88
2022-11-29T14:00:52.791Z,96546.19
2022-11-29T14:03:30.300Z,96537.81
2022-11-29T14:06:15.060Z,96502.00
2022-11-29T14:09:22.504Z,96511.41
2022-11-29T14:11:56.639Z,96514.69
2022-11-29T14:14:29.544Z,96495.97
2022-11-29T14:17:00.930Z,96484.13
2022-11-29T14:19:34.052Z,96455.75
2022-11-29T14:22:20.327Z,96470.53
2022-11-29T14:25:11.924Z,96469.53
2022-11-29T14:28:03.967Z,96455.75
2022-11-29T14:30:40.466Z,96458.88
2022-11-29T14:33:40.984Z,96442.31
2022-11-29T14:36:25.050Z,96431.97
2022-11-29T14:39:03.210Z,96455.75
2022-11-29T14:41:44.142Z,96440.66
2022-11-29T14:44:19.135Z,96456.91
2022-11-29T14:46:48.893Z,96456.75
2022-11-29T14:49:23.960Z,96450.84
2022-11-29T14:52:10.930Z,96492.69
2022-11-29T14:54:55.130Z,96461.84
2022-11-29T14:57:55.199Z,96456.59
2022-11-29T15:00:24.988Z,96458.53
2022-11-29T15:02:58.381Z,96460.50
2022-11-29T15:05:34.412Z,96475.59
2022-11-29T15:08:10.470Z,96497.78
2022-11-29T15:10:43.144Z,96471.97
2022-11-29T15:13:14.638Z,96484.00
2022-11-29T15:16:08.710Z,96496.81
2022-11-29T15:18:59.784Z,96500.25
2022-11-29T15:21:35.877Z,96491.88
2022-11-29T15:24:12.153Z,96494.34
2022-11-29T15:26:55.583Z,96496.81
2022-11-29T15:29:24.378Z,96504.50
2022-11-29T15:31:55.110Z,96514.03
2022-11-29T15:34:30.118Z,96519.94
2022-11-29T15:36:58.200Z,96509.75
2022-11-29T15:39:31.298Z,96505.34
2022-11-29T15:42:11.102Z,96518.28
2022-11-29T15:44:39.601Z,96515.50
2022-11-29T15:47:26.266Z,96504.50
2022-11-29T15:49:55.373Z,96511.41
2022-11-29T15:52:29.013Z,96487.44
2022-11-29T15:55:01.794Z,96499.41
2022-11-29T15:57:36.059Z,96488.28
2022-11-29T16:00:07.760Z,96479.88
2022-11-29T16:02:39.450Z,96499.25
2022-11-29T16:05:21.310Z,96499.25
2022-11-29T16:07:53.615Z,96503.53
2022-11-29T16:10:30.467Z,96503.03
2022-11-29T16:13:05.336Z,96504.50
2022-11-29T16:15:34.869Z,96522.41
2022-11-29T16:18:06.758Z,96533.38
2022-11-29T16:20:34.676Z,96533.38
2022-11-29T16:23:11.554Z,96534.38
2022-11-29T16:26:06.782Z,96523.22
2022-11-29T16:28:37.999Z,96521.56
2022-11-29T16:31:06.075Z,96507.78
2022-11-29T16:33:34.070Z,96510.56
2022-11-29T16:36:07.865Z,96520.59
2022-11-29T16:38:35.858Z,96533.38
2022-11-29T16:41:08.270Z,96544.53
2022-11-29T16:43:55.979Z,96554.56
2022-11-29T16:46:40.286Z,96537.50
2022-11-29T16:49:34.903Z,96541.91
2022-11-29T16:52:05.491Z,96524.03
2022-11-29T16:54:34.204Z,96510.41
2022-11-29T16:57:07.439Z,96517.97
2022-11-29T16:59:35.426Z,96506.31
2022-11-29T17:02:03.411Z,96521.56
2022-11-29T17:04:31.235Z,96509.59
2022-11-29T17:06:59.070Z,96498.44
2022-11-29T17:09:28.959Z,96500.09
2022-11-29T17:11:59.798Z,96479.38
2022-11-29T17:14:29.472Z,96466.91
2022-11-29T17:17:00.924Z,96492.53
2022-11-29T17:19:30.441Z,96489.09
2022-11-29T17:21:58.516Z,96504.50
2022-11-29T17:27:20.727Z,96524.03
2022-11-29T17:29:49.904Z,96529.13
2022-11-29T17:32:20.841Z,96534.22
2022-11-29T17:34:51.260Z,96546.84
2022-11-29T17:37:19.023Z,96561.44
2022-11-29T17:39:49.136Z,96565.56
2022-11-29T17:42:17.070Z,96560.63
2022-11-29T17:44:44.857Z,96557.84
2022-11-29T17:47:14.048Z,96557.03
2022-11-29T17:49:42.065Z,96563.91
2022-11-29T17:52:09.864Z,96591.47
2022-11-29T17:54:38.271Z,96570.66
2022-11-29T17:57:06.188Z,96581.81
2022-11-29T17:59:33.947Z,96585.25
2022-11-29T18:02:03.919Z,96601.69
2022-11-29T18:04:33.265Z,96619.41
2022-11-29T18:07:01.584Z,96594.47
2022-11-29T18:09:29.343Z,96598.09
2022-11-29T18:11:57.204Z,96630.44
2022-11-29T18:14:28.184Z,96623.03
2022-11-29T18:16:56.446Z,96631.41
2022-11-29T18:19:25.333Z,96639.94
2022-11-29T18:21:54.581Z,96638.13
2022-11-29T18:24:22.326Z,96659.47
2022-11-29T18:26:50.108Z,96659.47
2022-11-29T18:29:18.179Z,96670.00
2022-11-29T18:31:47.449Z,96682.31
2022-11-29T18:34:16.197Z,96703.00
2022-11-29T18:36:46.345Z,96699.56
2022-11-29T18:39:23.369Z,96685.09
2022-11-29T18:41:51.511Z,96692.81
2022-11-29T18:44:21.582Z,96698.72
2022-11-29T18:46:49.599Z,96678.88
2022-11-29T18:49:18.841Z,96705.50
2022-11-29T18:51:48.416Z,96685.41
2022-11-29T18:54:19.384Z,96702.19
2022-11-29T18:56:47.432Z,96692.00
2022-11-29T18:59:17.436Z,96698.56
2022-11-29T19:01:48.744Z,96665.41
2022-11-29T19:04:18.328Z,96682.31
2022-11-29T19:06:46.381Z,96707.44
2022-11-29T19:09:16.767Z,96710.75
2022-11-29T19:11:45.959Z,96695.44
2022-11-29T19:14:14.122Z,96696.09
2022-11-29T19:16:46.885Z,96699.72
2022-11-29T19:19:15.286Z,96708.13
2022-11-29T19:21:43.551Z,96714.88
2022-11-29T19:24:17.705Z,96706.31
2022-11-29T19:26:48.870Z,96717.66
2022-11-29T19:29:17.737Z,96709.91
2022-11-29T19:31:45.763Z,96702.88
2022-11-29T19:34:13.796Z,96692.81
2022-11-29T19:36:44.531Z,96670.63
2022-11-29T19:39:14.166Z,96690.34
2022-11-29T19:41:44.019Z,96690.34
2022-11-29T19:44:13.701Z,96656.84
2022-11-29T19:46:43.877Z,96725.22
2022-11-29T19:49:12.791Z,96720.94
2022-11-29T19:51:40.804Z,96722.59
2022-11-29T19:54:10.774Z,96766.44
2022-11-29T19:56:39.291Z,96768.09
2022-11-29T19:59:07.988Z,96806.38
2022-11-29T20:01:42.538Z,96770.56
2022-11-29T20:04:12.057Z,96807.19
2022-11-29T20:06:40.140Z,96785.00
2022-11-29T20:09:08.033Z,96768.75
2022-11-29T20:11:35.876Z,96755.94
2022-11-29T20:14:05.125Z,96728.97
2022-11-29T20:16:33.875Z,96744.91
2022-11-29T20:19:03.135Z,96722.06
2022-11-29T20:21:33.836Z,96712.41
2022-11-29T20:24:03.290Z,96709.06
2022-11-29T20:26:33.178Z,96714.03
2022-11-29T20:29:02.129Z,96698.56
2022-11-29T20:31:30.650Z,96713.38
2022-11-29T20:33:58.797Z,96720.94
2022-11-29T20:36:45.591Z,96719.28
2022-11-29T20:39:24.788Z,96703.16
2022-11-29T20:42:11.710Z,96685.94
2022-11-29T20:44:42.269Z,96712.69
2022-11-29T20:47:14.917Z,96692.00
2022-11-29T20:49:43.234Z,96731.13
2022-11-29T20:52:19.909Z,96768.09
2022-11-29T20:54:48.067Z,96765.28
2022-11-29T20:57:15.827Z,96755.09
2022-11-29T20:59:43.958Z,96748.22
2022-11-29T21:02:12.013Z,96780.91
2022-11-29T21:04:40.041Z,96786.81
2022-11-29T21:07:07.932Z,96819.03
2022-11-29T21:09:37.117Z,96809.66
2022-11-29T21:12:05.519Z,96802.41
2022-11-29T21:14:33.860Z,96792.88
2022-11-29T21:17:02.765Z,96795.53
2022-11-29T21:19:31.071Z,96801.13
2022-11-29T21:22:06.030Z,96784.97
2022-11-29T21:24:46.047Z,96795.19
2022-11-29T21:27:18.716Z,96790.25
2022-11-29T21:29:47.137Z,96789.59
2022-11-29T21:32:22.678Z,96807.19
2022-11-29T21:34:50.858Z,96837.97
2022-11-29T21:37:21.597Z,96850.78
2022-11-29T21:39:52.299Z,96854.41
2022-11-29T21:42:20.340Z,96860.97
2022-11-29T21:44:48.484Z,96869.53
2022-11-29T21:47:16.541Z,96833.69
2022-11-29T21:49:46.312Z,96857.69
2022-11-29T21:52:19.031Z,96808.03
2022-11-29T21:54:51.797Z,96828.06
2022-11-29T21:57:19.619Z,96821.81
2022-11-29T21:59:47.572Z,96835.63
2022-11-29T22:02:15.458Z,96790.41
2022-11-29T22:04:43.466Z,96791.25
2022-11-29T22:07:11.345Z,96791.25
2022-11-29T22:09:39.512Z,96755.09
2022-11-29T22:12:31.880Z,96763.66
2022-11-29T22:14:56.843Z,96751.81
2022-11-29T22:17:24.847Z,96735.56
2022-11-29T22:19:52.607Z,96718.47
2022-11-29T22:22:20.414Z,96704.66
2022-11-29T22:24:48.462Z,96731.44
2022-11-29T22:27:18.587Z,96707.44
2022-11-29T22:29:46.460Z,96697.25
2022-11-29T22:32:14.305Z,96685.25
2022-11-29T22:34:42.028Z,96685.25
2022-11-29T22:37:09.909Z,96659.81
2022-11-29T22:39:37.746Z,96660.78
2022-11-29T22:42:05.538Z,96653.72
2022-11-29T22:44:34.893Z,96634.84
2022-11-29T22:47:02.790Z,96633.38
2022-11-29T22:49:33.180Z,96641.09
2022-11-29T22:52:01.169Z,96653.88
2022-11-29T22:54:29.029Z,96668.34
2022-11-29T22:56:56.986Z,96662.44
2022-11-29T22:59:24.878Z,96678.53
2022-11-29T23:01:54.155Z,96676.06
2022-11-29T23:04:22.247Z,96665.72
2022-11-29T23:06:50.090Z,96692.97
2022-11-29T23:09:21.622Z,96687.88
2022-11-29T23:11:52.277Z,96696.44
2022-11-29T23:14:20.640Z,96698.06
2022-11-29T23:16:48.514Z,96692.00
2022-11-29T23:19:18.358Z,96703.97
2022-11-29T23:21:46.508Z,96703.16
2022-11-29T23:24:14.676Z,96728.44
2022-11-29T23:26:44.921Z,96733.91
2022-11-29T23:29:14.863Z,96742.44
2022-11-29T23:31:42.709Z,96734.72
2022-11-29T23:34:10.650Z,96716.13
2022-11-29T23:36:39.808Z,96712.69
2022-11-29T23:39:07.825Z,96719.56
2022-11-29T23:41:36.656Z,96696.44
2022-11-29T23:44:05.215Z,96689.03
2022-11-29T23:46:33.207Z,96663.41
2022-11-29T23:49:00.985Z,96660.63
2022-11-29T23:51:28.774Z,96656.34
2022-11-29T23:53:58.017Z,96627.09
2022-11-29T23:56:25.863Z,96653.88
2022-11-29T23:58:53.673Z,96655.38
